KLGA

La Guardia Airport

ICAO Code KLGA
IATA Code LGA
Name La Guardia Airport
Location New York, New-York, US
Elevation 21 Feet / 6.4 Meters
Latitude 40.77719879
Longitude -73.87259674
METAR KLGA 090851Z 30019G29KT 10SM FEW030 02/M06 A3006 RMK AO2 PK WND 32029/0846 SLP180 T00171056 51033
Extra information Display Charts and CFS
Display NOTAMS
Runway Length Width Surface Elevation
04 7000 ft 150 ft ASP 22 ft
13 7000 ft 150 ft ASP 13 ft
22 7000 ft 150 ft ASP 13 ft
31 7000 ft 150 ft ASP 8 ft